createdAt,value
2019-01-05T00:00:28.499Z,7.15
2019-01-05T00:03:10.571Z,7.16
2019-01-05T00:06:15.566Z,7.12
2019-01-05T00:09:04.228Z,7.13
2019-01-05T00:12:02.640Z,7.15
2019-01-05T00:15:05.705Z,7.15
2019-01-05T00:18:11.536Z,7.15
2019-01-05T00:21:09.598Z,7.14
2019-01-05T00:23:59.516Z,7.12
2019-01-05T00:27:04.400Z,7.06
2019-01-05T00:29:50.253Z,7.11
2019-01-05T00:32:46.136Z,7.07
2019-01-05T00:36:02.409Z,7.10
2019-01-05T00:38:59.254Z,7.10
2019-01-05T00:41:55.380Z,7.06
2019-01-05T00:44:36.798Z,7.13
2019-01-05T00:47:28.540Z,7.11
2019-01-05T00:50:19.966Z,7.13
2019-01-05T00:53:09.614Z,7.20
2019-01-05T00:56:09.928Z,7.19
2019-01-05T00:58:56.596Z,7.17
2019-01-05T01:01:44.777Z,7.25
2019-01-05T01:04:33.068Z,7.25
2019-01-05T01:07:34.720Z,7.23
2019-01-05T01:10:36.698Z,7.27
2019-01-05T01:13:24.868Z,7.29
2019-01-05T01:16:13.265Z,7.32
2019-01-05T01:19:02.212Z,7.32
2019-01-05T01:22:03.727Z,7.34
2019-01-05T01:24:59.172Z,7.35
2019-01-05T01:27:51.877Z,7.31
2019-01-05T01:30:49.399Z,7.34
2019-01-05T01:33:43.927Z,7.34
2019-01-05T01:36:24.572Z,7.33
2019-01-05T01:39:43.677Z,7.29
2019-01-05T01:42:51.779Z,7.29
2019-01-05T01:45:50.972Z,7.30
2019-01-05T01:48:39.059Z,7.28
2019-01-05T01:51:35.523Z,7.30
2019-01-05T01:54:37.121Z,7.31
2019-01-05T01:57:34.650Z,7.33
2019-01-05T02:00:37.849Z,7.30
2019-01-05T02:03:32.878Z,7.29
2019-01-05T02:06:23.484Z,7.31
2019-01-05T02:09:21.132Z,7.32
2019-01-05T02:12:25.533Z,7.29
2019-01-05T02:15:19.251Z,7.31
2019-01-05T02:18:49.578Z,7.32
2019-01-05T02:22:19.164Z,7.29
2019-01-05T02:25:56.059Z,7.31
2019-01-05T02:29:50.491Z,7.33
2019-01-05T02:33:19.064Z,7.39
2019-01-05T02:36:53.177Z,7.33
2019-01-05T02:40:43.466Z,7.39
2019-01-05T02:44:32.204Z,7.42
2019-01-05T02:48:32.811Z,7.40
2019-01-05T02:52:10.160Z,7.42
2019-01-05T02:56:03.167Z,7.43
2019-01-05T03:00:03.616Z,7.40
2019-01-05T03:03:47.026Z,7.43
2019-01-05T03:07:14.952Z,7.42
2019-01-05T03:11:33.333Z,7.43
2019-01-05T03:15:26.347Z,7.42
2019-01-05T03:19:13.402Z,7.40
2019-01-05T03:23:14.740Z,7.43
2019-01-05T03:26:57.689Z,7.38
2019-01-05T03:30:49.535Z,7.38
2019-01-05T03:34:47.885Z,7.41
2019-01-05T03:38:47.214Z,7.39
2019-01-05T03:42:53.488Z,7.38
2019-01-05T03:46:31.618Z,7.40
2019-01-05T03:50:56.355Z,7.43
2019-01-05T03:54:47.804Z,7.44
2019-01-05T03:58:35.643Z,7.42
2019-01-05T04:01:57.391Z,7.42
2019-01-05T04:06:05.311Z,7.40
2019-01-05T04:10:03.838Z,7.42
2019-01-05T04:13:54.618Z,7.38
2019-01-05T04:17:42.897Z,7.42
2019-01-05T04:21:44.299Z,7.40
2019-01-05T04:25:10.194Z,7.41
2019-01-05T04:29:26.838Z,7.37
2019-01-05T04:33:01.489Z,7.37
2019-01-05T04:36:42.088Z,7.35
2019-01-05T04:40:40.879Z,7.38
2019-01-05T04:45:15.463Z,7.41
2019-01-05T04:49:10.142Z,7.37
2019-01-05T04:53:28.890Z,7.37
2019-01-05T04:57:28.389Z,7.35
2019-01-05T05:01:10.480Z,7.31
2019-01-05T05:05:06.208Z,7.33
2019-01-05T05:09:09.208Z,7.31
2019-01-05T05:13:16.709Z,7.35
2019-01-05T05:17:02.752Z,7.31
2019-01-05T05:20:59.259Z,7.34
2019-01-05T05:24:51.657Z,7.32
2019-01-05T05:29:00.323Z,7.36
2019-01-05T05:32:55.772Z,7.30
2019-01-05T05:36:43.771Z,7.31
2019-01-05T05:40:55.016Z,7.32
2019-01-05T05:44:50.756Z,7.29
2019-01-05T05:48:49.236Z,7.28
2019-01-05T05:52:42.254Z,7.30
2019-01-05T05:56:40.235Z,7.32
2019-01-05T06:00:23.851Z,7.29
2019-01-05T06:04:30.452Z,7.38
2019-01-05T06:08:13.614Z,7.31
2019-01-05T06:12:05.300Z,7.32
2019-01-05T06:15:38.616Z,7.28
2019-01-05T06:19:02.769Z,7.26
2019-01-05T06:23:00.982Z,7.31
2019-01-05T06:26:53.046Z,7.35
2019-01-05T06:30:52.343Z,7.31
2019-01-05T06:34:34.935Z,7.34
2019-01-05T06:38:33.859Z,7.41
2019-01-05T12:43:55.910Z,8.32
2019-01-05T12:47:58.035Z,8.25
2019-01-05T12:52:04.259Z,8.30
2019-01-05T12:56:06.411Z,8.28
2019-01-05T12:59:43.892Z,8.26
2019-01-05T13:03:21.496Z,8.23
2019-01-05T13:07:13.697Z,8.32
2019-01-05T13:10:56.456Z,8.39
2019-01-05T13:14:54.886Z,8.31
2019-01-05T13:19:10.020Z,8.29
2019-01-05T13:23:10.217Z,8.34
2019-01-05T13:27:30.298Z,8.37
2019-01-05T13:31:19.028Z,8.30
2019-01-05T13:34:59.507Z,8.26
2019-01-05T13:39:11.994Z,8.18
2019-01-05T13:43:04.191Z,8.12
2019-01-05T13:47:01.103Z,8.13
2019-01-05T13:50:46.504Z,8.23
2019-01-05T13:53:53.167Z,8.20
2019-01-05T13:57:08.040Z,8.23
2019-01-05T14:00:00.463Z,8.13
2019-01-05T14:02:48.870Z,8.20
2019-01-05T14:05:47.786Z,8.18
2019-01-05T14:08:36.772Z,8.34
2019-01-05T14:11:41.657Z,8.26
2019-01-05T14:14:29.845Z,8.22
2019-01-05T14:17:28.698Z,8.26
2019-01-05T14:20:36.247Z,8.13
2019-01-05T14:23:44.147Z,8.11
2019-01-05T14:26:38.864Z,8.15
2019-01-05T14:29:30.869Z,8.11
2019-01-05T14:32:20.386Z,8.10
2019-01-05T14:35:09.917Z,8.14
2019-01-05T14:38:00.375Z,8.13
2019-01-05T14:40:48.633Z,8.12
2019-01-05T14:43:36.957Z,8.09
2019-01-05T14:46:29.419Z,8.11
2019-01-05T14:49:34.001Z,8.11
2019-01-05T14:52:22.369Z,8.12
2019-01-05T14:55:18.793Z,8.06
2019-01-05T14:58:26.416Z,8.07
2019-01-05T15:01:14.544Z,8.08
2019-01-05T15:04:06.589Z,8.08
2019-01-05T15:07:11.199Z,8.01
2019-01-05T15:10:00.586Z,8.10
2019-01-05T15:12:49.980Z,8.05
2019-01-05T15:15:57.874Z,8.06
2019-01-05T15:18:46.036Z,8.10
2019-01-05T15:21:34.802Z,8.14
2019-01-05T15:24:39.531Z,8.10
2019-01-05T15:27:43.862Z,8.10
2019-01-05T15:30:32.419Z,8.05
2019-01-05T15:33:19.994Z,8.00
2019-01-05T15:36:08.030Z,8.03
2019-01-05T15:38:56.189Z,8.02
2019-01-05T15:41:41.715Z,8.01
2019-01-05T15:44:46.547Z,8.06
2019-01-05T15:47:40.303Z,7.98
2019-01-05T15:50:35.918Z,7.95
2019-01-05T15:53:24.121Z,7.86
2019-01-05T15:56:20.263Z,7.88
2019-01-05T15:59:09.648Z,7.81
2019-01-05T16:02:05.165Z,7.78
2019-01-05T16:05:06.744Z,7.74
2019-01-05T16:07:56.984Z,7.74
2019-01-05T16:10:43.246Z,7.76
2019-01-05T16:13:29.102Z,7.77
2019-01-05T16:16:17.289Z,7.79
2019-01-05T16:19:05.649Z,7.74
2019-01-05T16:21:54.066Z,7.78
2019-01-05T16:24:43.613Z,7.73
2019-01-05T16:27:32.013Z,7.68
2019-01-05T16:30:21.476Z,7.69
2019-01-05T16:33:09.517Z,7.70
2019-01-05T16:36:01.892Z,7.64
2019-01-05T16:39:00.130Z,7.58
2019-01-05T16:41:48.431Z,7.57
2019-01-05T16:44:36.763Z,7.56
2019-01-05T16:47:32.260Z,7.50
2019-01-05T16:50:40.114Z,7.45
2019-01-05T16:53:44.257Z,7.43
2019-01-05T16:56:45.388Z,7.47
2019-01-05T16:59:33.541Z,7.40
2019-01-05T17:02:28.108Z,7.40
2019-01-05T17:05:32.727Z,7.38
2019-01-05T17:08:27.992Z,7.37
2019-01-05T17:11:16.151Z,7.35
2019-01-05T17:14:17.645Z,7.34
2019-01-05T17:17:09.929Z,7.25
2019-01-05T17:20:01.121Z,7.26
2019-01-05T17:22:49.475Z,7.24
2019-01-05T17:25:51.032Z,7.19
2019-01-05T17:28:48.008Z,7.21
2019-01-05T17:31:43.485Z,7.17
2019-01-05T17:34:32.979Z,7.20
2019-01-05T17:37:22.369Z,7.28
2019-01-05T17:40:23.928Z,7.30
2019-01-05T17:43:25.704Z,7.35
2019-01-05T17:46:21.040Z,7.27
2019-01-05T17:49:29.011Z,7.27
2019-01-05T17:52:17.116Z,7.27
2019-01-05T17:55:20.116Z,7.26
2019-01-05T17:58:08.253Z,7.30
2019-01-05T18:01:00.686Z,7.38
2019-01-05T18:03:48.530Z,7.38
2019-01-05T18:06:46.782Z,7.31
2019-01-05T18:09:36.244Z,7.29
2019-01-05T18:12:24.844Z,7.24
2019-01-05T18:15:13.290Z,7.24
2019-01-05T18:18:01.712Z,7.23
2019-01-05T18:20:50.451Z,7.22
2019-01-05T18:23:52.336Z,7.21
2019-01-05T18:26:42.250Z,7.19
2019-01-05T18:29:30.405Z,7.11
2019-01-05T18:32:18.043Z,7.14
2019-01-05T18:35:19.620Z,7.11
2019-01-05T18:38:14.674Z,7.12
2019-01-05T22:58:30.595Z,5.75
2019-01-05T23:01:29.201Z,5.81
2019-01-05T23:04:21.015Z,5.81
2019-01-05T23:07:10.454Z,5.74
2019-01-05T23:10:06.102Z,5.71
2019-01-05T23:13:10.672Z,5.72
2019-01-05T23:16:09.287Z,5.62
2019-01-05T23:18:58.756Z,5.64
2019-01-05T23:21:54.149Z,5.61
2019-01-05T23:24:38.542Z,5.74
2019-01-05T23:27:21.265Z,5.62
2019-01-05T23:30:09.437Z,5.61
2019-01-05T23:33:13.262Z,5.53
2019-01-05T23:36:05.725Z,5.41
2019-01-05T23:38:59.340Z,5.47
2019-01-05T23:41:47.641Z,5.46
2019-01-05T23:44:49.162Z,5.34
2019-01-05T23:47:44.913Z,5.36
2019-01-05T23:50:49.737Z,5.37
2019-01-05T23:53:37.788Z,5.34
2019-01-05T23:56:42.388Z,5.21
2019-01-05T23:59:30.099Z,5.26
